sensor_id;sensor_type;location;lat;lon;timestamp;P1;durP1;ratioP1;P2;durP2;ratioP2
42702;SDS011;28341;52.064;4.920;2023-08-01T00:01:08;9.48;;;4.22;;
42702;SDS011;28341;52.064;4.920;2023-08-01T00:03:12;9.68;;;4.20;;
42702;SDS011;28341;52.064;4.920;2023-08-01T00:05:16;8.15;;;4.13;;
42702;SDS011;28341;52.064;4.920;2023-08-01T00:07:23;11.88;;;5.00;;
42702;SDS011;28341;52.064;4.920;2023-08-01T00:09:25;9.70;;;4.70;;
42702;SDS011;28341;52.064;4.920;2023-08-01T00:11:29;8.30;;;4.35;;
42702;SDS011;28341;52.064;4.920;2023-08-01T00:13:33;8.20;;;4.68;;
42702;SDS011;28341;52.064;4.920;2023-08-01T00:15:37;10.52;;;5.25;;
42702;SDS011;28341;52.064;4.920;2023-08-01T00:17:41;11.20;;;5.20;;
42702;SDS011;28341;52.064;4.920;2023-08-01T00:19:45;10.40;;;5.22;;
42702;SDS011;28341;52.064;4.920;2023-08-01T00:21:47;9.85;;;5.90;;
42702;SDS011;28341;52.064;4.920;2023-08-01T00:23:53;13.10;;;5.63;;
42702;SDS011;28341;52.064;4.920;2023-08-01T00:25:57;13.95;;;5.93;;
42702;SDS011;28341;52.064;4.920;2023-08-01T00:28:01;15.20;;;5.30;;
42702;SDS011;28341;52.064;4.920;2023-08-01T00:30:07;13.52;;;5.32;;
42702;SDS011;28341;52.064;4.920;2023-08-01T00:32:12;12.23;;;5.40;;
42702;SDS011;28341;52.064;4.920;2023-08-01T00:34:16;15.48;;;6.22;;
42702;SDS011;28341;52.064;4.920;2023-08-01T00:36:20;15.77;;;5.15;;
42702;SDS011;28341;52.064;4.920;2023-08-01T00:38:24;12.70;;;6.18;;
42702;SDS011;28341;52.064;4.920;2023-08-01T00:40:32;14.85;;;5.65;;
42702;SDS011;28341;52.064;4.920;2023-08-01T00:42:37;13.43;;;5.82;;
42702;SDS011;28341;52.064;4.920;2023-08-01T00:44:41;12.57;;;5.60;;
42702;SDS011;28341;52.064;4.920;2023-08-01T00:46:47;9.60;;;5.93;;
42702;SDS011;28341;52.064;4.920;2023-08-01T00:48:51;14.70;;;5.95;;
42702;SDS011;28341;52.064;4.920;2023-08-01T00:50:58;13.85;;;5.97;;
42702;SDS011;28341;52.064;4.920;2023-08-01T00:53:05;12.00;;;5.72;;
42702;SDS011;28341;52.064;4.920;2023-08-01T00:55:09;12.15;;;5.88;;
42702;SDS011;28341;52.064;4.920;2023-08-01T00:57:15;14.00;;;6.13;;
42702;SDS011;28341;52.064;4.920;2023-08-01T00:59:17;15.35;;;6.07;;
42702;SDS011;28341;52.064;4.920;2023-08-01T01:01:21;18.23;;;6.10;;
42702;SDS011;28341;52.064;4.920;2023-08-01T01:03:25;14.18;;;6.28;;
42702;SDS011;28341;52.064;4.920;2023-08-01T01:05:31;14.32;;;5.93;;
42702;SDS011;28341;52.064;4.920;2023-08-01T01:07:37;13.35;;;5.85;;
42702;SDS011;28341;52.064;4.920;2023-08-01T01:09:43;17.15;;;5.68;;
42702;SDS011;28341;52.064;4.920;2023-08-01T01:11:47;17.55;;;6.30;;
42702;SDS011;28341;52.064;4.920;2023-08-01T01:13:50;18.33;;;5.93;;
42702;SDS011;28341;52.064;4.920;2023-08-01T01:15:55;17.40;;;6.63;;
42702;SDS011;28341;52.064;4.920;2023-08-01T01:17:57;16.45;;;6.30;;
42702;SDS011;28341;52.064;4.920;2023-08-01T01:20:01;15.70;;;7.05;;
42702;SDS011;28341;52.064;4.920;2023-08-01T01:22:08;16.17;;;5.90;;
42702;SDS011;28341;52.064;4.920;2023-08-01T01:24:11;15.65;;;6.55;;
42702;SDS011;28341;52.064;4.920;2023-08-01T01:26:16;17.40;;;6.50;;
42702;SDS011;28341;52.064;4.920;2023-08-01T01:28:21;23.80;;;7.20;;
42702;SDS011;28341;52.064;4.920;2023-08-01T01:30:26;18.50;;;5.97;;
42702;SDS011;28341;52.064;4.920;2023-08-01T01:32:30;20.73;;;6.35;;
42702;SDS011;28341;52.064;4.920;2023-08-01T01:34:35;19.42;;;6.22;;
42702;SDS011;28341;52.064;4.920;2023-08-01T01:36:38;14.52;;;6.00;;
42702;SDS011;28341;52.064;4.920;2023-08-01T01:38:45;16.20;;;5.82;;
42702;SDS011;28341;52.064;4.920;2023-08-01T01:40:50;15.10;;;6.85;;
42702;SDS011;28341;52.064;4.920;2023-08-01T01:42:54;13.30;;;6.45;;
42702;SDS011;28341;52.064;4.920;2023-08-01T01:44:58;18.20;;;6.70;;
42702;SDS011;28341;52.064;4.920;2023-08-01T01:47:02;21.85;;;7.60;;
42702;SDS011;28341;52.064;4.920;2023-08-01T01:49:06;15.20;;;6.90;;
42702;SDS011;28341;52.064;4.920;2023-08-01T01:51:10;21.40;;;7.93;;
42702;SDS011;28341;52.064;4.920;2023-08-01T01:53:15;22.90;;;8.10;;
42702;SDS011;28341;52.064;4.920;2023-08-01T01:55:21;17.50;;;8.32;;
42702;SDS011;28341;52.064;4.920;2023-08-01T01:57:25;20.10;;;8.50;;
42702;SDS011;28341;52.064;4.920;2023-08-01T01:59:29;24.45;;;8.73;;
42702;SDS011;28341;52.064;4.920;2023-08-01T02:01:33;20.50;;;7.55;;
42702;SDS011;28341;52.064;4.920;2023-08-01T02:03:37;17.63;;;7.75;;
42702;SDS011;28341;52.064;4.920;2023-08-01T02:05:41;18.80;;;8.02;;
42702;SDS011;28341;52.064;4.920;2023-08-01T02:07:45;15.82;;;7.72;;
42702;SDS011;28341;52.064;4.920;2023-08-01T02:09:49;15.52;;;7.78;;
42702;SDS011;28341;52.064;4.920;2023-08-01T02:11:56;15.88;;;8.00;;
42702;SDS011;28341;52.064;4.920;2023-08-01T02:14:00;14.15;;;7.22;;
42702;SDS011;28341;52.064;4.920;2023-08-01T02:16:04;18.17;;;8.15;;
42702;SDS011;28341;52.064;4.920;2023-08-01T02:18:08;23.05;;;8.00;;
42702;SDS011;28341;52.064;4.920;2023-08-01T02:20:12;20.95;;;9.35;;
42702;SDS011;28341;52.064;4.920;2023-08-01T02:22:14;20.20;;;7.68;;
42702;SDS011;28341;52.064;4.920;2023-08-01T02:24:18;14.85;;;7.70;;
42702;SDS011;28341;52.064;4.920;2023-08-01T02:26:22;22.45;;;8.38;;
42702;SDS011;28341;52.064;4.920;2023-08-01T02:28:28;18.35;;;8.38;;
42702;SDS011;28341;52.064;4.920;2023-08-01T02:30:32;16.00;;;7.60;;
42702;SDS011;28341;52.064;4.920;2023-08-01T02:32:36;17.77;;;7.88;;
42702;SDS011;28341;52.064;4.920;2023-08-01T02:34:42;15.32;;;7.70;;
42702;SDS011;28341;52.064;4.920;2023-08-01T02:36:46;18.98;;;7.57;;
42702;SDS011;28341;52.064;4.920;2023-08-01T02:38:50;17.13;;;7.68;;
42702;SDS011;28341;52.064;4.920;2023-08-01T02:40:54;19.15;;;7.13;;
42702;SDS011;28341;52.064;4.920;2023-08-01T02:42:58;16.10;;;6.55;;
42702;SDS011;28341;52.064;4.920;2023-08-01T02:45:02;17.85;;;7.70;;
42702;SDS011;28341;52.064;4.920;2023-08-01T02:47:07;18.00;;;7.00;;
42702;SDS011;28341;52.064;4.920;2023-08-01T02:49:11;21.30;;;7.53;;
42702;SDS011;28341;52.064;4.920;2023-08-01T02:51:15;19.30;;;6.82;;
42702;SDS011;28341;52.064;4.920;2023-08-01T02:53:19;18.05;;;6.22;;
42702;SDS011;28341;52.064;4.920;2023-08-01T02:55:23;22.63;;;6.88;;
42702;SDS011;28341;52.064;4.920;2023-08-01T02:57:27;19.25;;;7.47;;
42702;SDS011;28341;52.064;4.920;2023-08-01T02:59:29;24.40;;;7.57;;
42702;SDS011;28341;52.064;4.920;2023-08-01T03:01:36;17.60;;;6.80;;
42702;SDS011;28341;52.064;4.920;2023-08-01T03:03:40;23.90;;;7.93;;
42702;SDS011;28341;52.064;4.920;2023-08-01T03:05:44;23.60;;;7.45;;
42702;SDS011;28341;52.064;4.920;2023-08-01T03:07:46;22.90;;;6.78;;
42702;SDS011;28341;52.064;4.920;2023-08-01T03:09:50;21.58;;;7.15;;
42702;SDS011;28341;52.064;4.920;2023-08-01T03:11:55;14.75;;;6.22;;
42702;SDS011;28341;52.064;4.920;2023-08-01T03:13:56;20.05;;;6.35;;
42702;SDS011;28341;52.064;4.920;2023-08-01T03:16:01;18.45;;;6.95;;
42702;SDS011;28341;52.064;4.920;2023-08-01T03:18:07;21.13;;;7.18;;
42702;SDS011;28341;52.064;4.920;2023-08-01T03:20:11;23.75;;;7.25;;
42702;SDS011;28341;52.064;4.920;2023-08-01T03:22:15;23.75;;;8.60;;
42702;SDS011;28341;52.064;4.920;2023-08-01T03:24:19;19.42;;;7.40;;
42702;SDS011;28341;52.064;4.920;2023-08-01T03:26:23;15.65;;;7.78;;
42702;SDS011;28341;52.064;4.920;2023-08-01T03:28:28;17.83;;;7.70;;
42702;SDS011;28341;52.064;4.920;2023-08-01T03:30:33;20.60;;;7.90;;
42702;SDS011;28341;52.064;4.920;2023-08-01T03:32:34;19.33;;;7.70;;
42702;SDS011;28341;52.064;4.920;2023-08-01T03:34:41;22.38;;;7.88;;
42702;SDS011;28341;52.064;4.920;2023-08-01T03:36:45;26.08;;;8.50;;
42702;SDS011;28341;52.064;4.920;2023-08-01T03:38:50;24.00;;;9.00;;
42702;SDS011;28341;52.064;4.920;2023-08-01T03:40:54;19.88;;;7.53;;
42702;SDS011;28341;52.064;4.920;2023-08-01T03:42:58;28.38;;;8.27;;
42702;SDS011;28341;52.064;4.920;2023-08-01T03:45:02;30.58;;;9.23;;
42702;SDS011;28341;52.064;4.920;2023-08-01T03:47:08;20.73;;;8.07;;
42702;SDS011;28341;52.064;4.920;2023-08-01T03:49:12;24.38;;;9.05;;
42702;SDS011;28341;52.064;4.920;2023-08-01T03:51:19;19.27;;;8.40;;
42702;SDS011;28341;52.064;4.920;2023-08-01T03:53:23;27.42;;;8.95;;
42702;SDS011;28341;52.064;4.920;2023-08-01T03:55:27;22.35;;;8.55;;
42702;SDS011;28341;52.064;4.920;2023-08-01T03:57:31;19.50;;;8.13;;
42702;SDS011;28341;52.064;4.920;2023-08-01T03:59:34;29.20;;;9.30;;
42702;SDS011;28341;52.064;4.920;2023-08-01T04:01:38;22.25;;;9.10;;
42702;SDS011;28341;52.064;4.920;2023-08-01T04:03:39;24.55;;;9.10;;
42702;SDS011;28341;52.064;4.920;2023-08-01T04:05:44;36.88;;;10.00;;
42702;SDS011;28341;52.064;4.920;2023-08-01T04:07:50;27.67;;;9.10;;
42702;SDS011;28341;52.064;4.920;2023-08-01T04:09:55;30.55;;;9.75;;
42702;SDS011;28341;52.064;4.920;2023-08-01T04:11:59;29.02;;;8.13;;
42702;SDS011;28341;52.064;4.920;2023-08-01T04:14:03;22.23;;;8.77;;
42702;SDS011;28341;52.064;4.920;2023-08-01T04:16:08;23.70;;;8.82;;
42702;SDS011;28341;52.064;4.920;2023-08-01T04:18:12;23.90;;;9.18;;
42702;SDS011;28341;52.064;4.920;2023-08-01T04:20:16;22.00;;;8.90;;
42702;SDS011;28341;52.064;4.920;2023-08-01T04:22:20;24.90;;;9.70;;
42702;SDS011;28341;52.064;4.920;2023-08-01T04:24:27;28.13;;;9.05;;
42702;SDS011;28341;52.064;4.920;2023-08-01T04:26:31;28.55;;;9.43;;
42702;SDS011;28341;52.064;4.920;2023-08-01T04:28:37;19.02;;;8.73;;
42702;SDS011;28341;52.064;4.920;2023-08-01T04:30:40;25.60;;;8.82;;
42702;SDS011;28341;52.064;4.920;2023-08-01T04:32:45;27.55;;;9.73;;
42702;SDS011;28341;52.064;4.920;2023-08-01T04:34:49;27.90;;;8.93;;
42702;SDS011;28341;52.064;4.920;2023-08-01T04:36:53;26.42;;;8.57;;
42702;SDS011;28341;52.064;4.920;2023-08-01T04:38:57;26.00;;;8.38;;
42702;SDS011;28341;52.064;4.920;2023-08-01T04:41:03;20.63;;;8.20;;
42702;SDS011;28341;52.064;4.920;2023-08-01T04:43:08;24.45;;;7.93;;
42702;SDS011;28341;52.064;4.920;2023-08-01T04:45:13;27.50;;;8.10;;
42702;SDS011;28341;52.064;4.920;2023-08-01T04:47:17;17.00;;;7.60;;
42702;SDS011;28341;52.064;4.920;2023-08-01T04:49:22;25.25;;;8.20;;
42702;SDS011;28341;52.064;4.920;2023-08-01T04:51:27;26.83;;;8.20;;
42702;SDS011;28341;52.064;4.920;2023-08-01T04:53:31;28.27;;;8.60;;
42702;SDS011;28341;52.064;4.920;2023-08-01T04:55:35;20.35;;;8.48;;
42702;SDS011;28341;52.064;4.920;2023-08-01T04:57:41;20.92;;;7.90;;
42702;SDS011;28341;52.064;4.920;2023-08-01T04:59:45;17.83;;;7.93;;
42702;SDS011;28341;52.064;4.920;2023-08-01T05:01:49;23.40;;;7.30;;
42702;SDS011;28341;52.064;4.920;2023-08-01T05:03:53;22.90;;;7.55;;
42702;SDS011;28341;52.064;4.920;2023-08-01T05:05:58;24.85;;;7.38;;
42702;SDS011;28341;52.064;4.920;2023-08-01T05:08:02;25.98;;;8.13;;
42702;SDS011;28341;52.064;4.920;2023-08-01T05:10:07;24.63;;;7.22;;
42702;SDS011;28341;52.064;4.920;2023-08-01T05:12:12;21.38;;;7.25;;
42702;SDS011;28341;52.064;4.920;2023-08-01T05:14:19;19.83;;;6.53;;
42702;SDS011;28341;52.064;4.920;2023-08-01T05:16:23;18.33;;;6.15;;
42702;SDS011;28341;52.064;4.920;2023-08-01T05:18:27;19.67;;;5.82;;
42702;SDS011;28341;52.064;4.920;2023-08-01T05:20:31;19.08;;;6.35;;
42702;SDS011;28341;52.064;4.920;2023-08-01T05:22:35;20.83;;;6.63;;
42702;SDS011;28341;52.064;4.920;2023-08-01T05:24:36;18.92;;;6.10;;
42702;SDS011;28341;52.064;4.920;2023-08-01T05:26:40;16.65;;;5.03;;
42702;SDS011;28341;52.064;4.920;2023-08-01T05:28:44;19.15;;;5.35;;
42702;SDS011;28341;52.064;4.920;2023-08-01T05:30:51;22.73;;;5.38;;
42702;SDS011;28341;52.064;4.920;2023-08-01T05:32:56;15.32;;;5.43;;
42702;SDS011;28341;52.064;4.920;2023-08-01T05:35:00;14.35;;;5.40;;
42702;SDS011;28341;52.064;4.920;2023-08-01T05:37:05;16.90;;;5.05;;
42702;SDS011;28341;52.064;4.920;2023-08-01T05:39:09;14.27;;;5.07;;
42702;SDS011;28341;52.064;4.920;2023-08-01T05:41:13;15.82;;;5.40;;
42702;SDS011;28341;52.064;4.920;2023-08-01T05:43:17;18.55;;;5.10;;
42702;SDS011;28341;52.064;4.920;2023-08-01T05:45:21;29.55;;;6.43;;
42702;SDS011;28341;52.064;4.920;2023-08-01T05:47:27;13.82;;;5.35;;
42702;SDS011;28341;52.064;4.920;2023-08-01T05:49:31;17.95;;;5.50;;
42702;SDS011;28341;52.064;4.920;2023-08-01T05:51:35;16.08;;;4.80;;
42702;SDS011;28341;52.064;4.920;2023-08-01T05:53:39;20.25;;;5.18;;
42702;SDS011;28341;52.064;4.920;2023-08-01T05:55:43;15.25;;;4.88;;
42702;SDS011;28341;52.064;4.920;2023-08-01T05:57:47;15.00;;;4.97;;
42702;SDS011;28341;52.064;4.920;2023-08-01T05:59:52;14.98;;;5.10;;
42702;SDS011;28341;52.064;4.920;2023-08-01T06:01:56;16.20;;;5.30;;
42702;SDS011;28341;52.064;4.920;2023-08-01T06:04:03;17.17;;;4.82;;
42702;SDS011;28341;52.064;4.920;2023-08-01T06:06:08;15.18;;;4.50;;
42702;SDS011;28341;52.064;4.920;2023-08-01T06:08:12;19.40;;;5.45;;
42702;SDS011;28341;52.064;4.920;2023-08-01T06:10:16;11.45;;;4.70;;
42702;SDS011;28341;52.064;4.920;2023-08-01T06:12:20;17.25;;;4.70;;
42702;SDS011;28341;52.064;4.920;2023-08-01T06:14:24;12.13;;;4.60;;
42702;SDS011;28341;52.064;4.920;2023-08-01T06:16:28;20.05;;;4.93;;
42702;SDS011;28341;52.064;4.920;2023-08-01T06:18:32;16.38;;;5.22;;
42702;SDS011;28341;52.064;4.920;2023-08-01T06:20:39;13.55;;;4.85;;
42702;SDS011;28341;52.064;4.920;2023-08-01T06:22:43;13.43;;;5.13;;
42702;SDS011;28341;52.064;4.920;2023-08-01T06:24:47;14.40;;;5.20;;
42702;SDS011;28341;52.064;4.920;2023-08-01T06:26:51;19.58;;;4.95;;
42702;SDS011;28341;52.064;4.920;2023-08-01T06:28:55;15.90;;;5.32;;
42702;SDS011;28341;52.064;4.920;2023-08-01T06:30:59;16.48;;;4.85;;
42702;SDS011;28341;52.064;4.920;2023-08-01T06:33:03;14.27;;;4.60;;
42702;SDS011;28341;52.064;4.920;2023-08-01T06:35:05;13.60;;;4.78;;
42702;SDS011;28341;52.064;4.920;2023-08-01T06:37:12;16.10;;;5.03;;
42702;SDS011;28341;52.064;4.920;2023-08-01T06:39:16;12.63;;;4.25;;
42702;SDS011;28341;52.064;4.920;2023-08-01T06:41:20;15.23;;;4.50;;
42702;SDS011;28341;52.064;4.920;2023-08-01T06:43:26;19.70;;;4.90;;
42702;SDS011;28341;52.064;4.920;2023-08-01T06:45:30;13.10;;;4.05;;
42702;SDS011;28341;52.064;4.920;2023-08-01T06:47:34;15.88;;;4.40;;
42702;SDS011;28341;52.064;4.920;2023-08-01T06:49:38;12.60;;;3.97;;
42702;SDS011;28341;52.064;4.920;2023-08-01T06:51:42;11.25;;;3.92;;
42702;SDS011;28341;52.064;4.920;2023-08-01T06:53:49;12.57;;;3.78;;
42702;SDS011;28341;52.064;4.920;2023-08-01T06:55:53;12.85;;;4.05;;
42702;SDS011;28341;52.064;4.920;2023-08-01T06:57:56;12.43;;;3.80;;
42702;SDS011;28341;52.064;4.920;2023-08-01T07:00:00;11.32;;;3.75;;
42702;SDS011;28341;52.064;4.920;2023-08-01T07:02:03;13.30;;;4.60;;
42702;SDS011;28341;52.064;4.920;2023-08-01T07:04:08;10.32;;;3.50;;
42702;SDS011;28341;52.064;4.920;2023-08-01T07:06:12;19.60;;;4.07;;
42702;SDS011;28341;52.064;4.920;2023-08-01T07:08:16;12.48;;;3.83;;
42702;SDS011;28341;52.064;4.920;2023-08-01T07:10:24;10.25;;;3.40;;
42702;SDS011;28341;52.064;4.920;2023-08-01T07:12:28;8.00;;;3.20;;
42702;SDS011;28341;52.064;4.920;2023-08-01T07:14:32;10.90;;;3.40;;
42702;SDS011;28341;52.064;4.920;2023-08-01T07:16:36;11.68;;;3.70;;
42702;SDS011;28341;52.064;4.920;2023-08-01T07:18:40;11.63;;;3.45;;
42702;SDS011;28341;52.064;4.920;2023-08-01T07:20:44;11.10;;;3.88;;
42702;SDS011;28341;52.064;4.920;2023-08-01T07:22:48;12.35;;;4.15;;
42702;SDS011;28341;52.064;4.920;2023-08-01T07:24:52;14.18;;;4.53;;
42702;SDS011;28341;52.064;4.920;2023-08-01T07:26:59;17.08;;;4.65;;
42702;SDS011;28341;52.064;4.920;2023-08-01T07:29:03;17.40;;;4.53;;
42702;SDS011;28341;52.064;4.920;2023-08-01T07:31:08;14.43;;;5.05;;
42702;SDS011;28341;52.064;4.920;2023-08-01T07:33:16;16.67;;;4.57;;
42702;SDS011;28341;52.064;4.920;2023-08-01T07:35:20;18.27;;;5.38;;
42702;SDS011;28341;52.064;4.920;2023-08-01T07:37:24;12.50;;;3.80;;
42702;SDS011;28341;52.064;4.920;2023-08-01T07:39:29;16.77;;;3.97;;
42702;SDS011;28341;52.064;4.920;2023-08-01T07:41:34;12.80;;;4.22;;
42702;SDS011;28341;52.064;4.920;2023-08-01T07:43:41;11.52;;;3.58;;
42702;SDS011;28341;52.064;4.920;2023-08-01T07:45:45;11.32;;;3.65;;
42702;SDS011;28341;52.064;4.920;2023-08-01T07:47:50;13.90;;;3.78;;
42702;SDS011;28341;52.064;4.920;2023-08-01T07:49:54;15.60;;;4.43;;
42702;SDS011;28341;52.064;4.920;2023-08-01T07:51:58;11.32;;;3.90;;
42702;SDS011;28341;52.064;4.920;2023-08-01T07:54:02;17.30;;;4.25;;
42702;SDS011;28341;52.064;4.920;2023-08-01T07:56:06;13.52;;;3.50;;
42702;SDS011;28341;52.064;4.920;2023-08-01T07:58:10;10.93;;;3.67;;
42702;SDS011;28341;52.064;4.920;2023-08-01T08:00:17;11.60;;;3.60;;
42702;SDS011;28341;52.064;4.920;2023-08-01T08:02:22;11.23;;;3.08;;
42702;SDS011;28341;52.064;4.920;2023-08-01T08:04:26;12.80;;;3.17;;
42702;SDS011;28341;52.064;4.920;2023-08-01T08:06:30;18.20;;;4.10;;
42702;SDS011;28341;52.064;4.920;2023-08-01T08:08:34;14.07;;;2.80;;
42702;SDS011;28341;52.064;4.920;2023-08-01T08:10:38;12.98;;;3.20;;
42702;SDS011;28341;52.064;4.920;2023-08-01T08:12:42;11.02;;;3.30;;
42702;SDS011;28341;52.064;4.920;2023-08-01T08:14:46;9.07;;;2.85;;
42702;SDS011;28341;52.064;4.920;2023-08-01T08:16:53;9.60;;;3.67;;
42702;SDS011;28341;52.064;4.920;2023-08-01T08:18:57;10.15;;;3.10;;
42702;SDS011;28341;52.064;4.920;2023-08-01T08:21:01;14.68;;;3.35;;
42702;SDS011;28341;52.064;4.920;2023-08-01T08:23:05;12.15;;;3.15;;
42702;SDS011;28341;52.064;4.920;2023-08-01T08:25:06;10.95;;;2.92;;
42702;SDS011;28341;52.064;4.920;2023-08-01T08:27:11;9.07;;;2.63;;
42702;SDS011;28341;52.064;4.920;2023-08-01T08:29:15;9.13;;;2.50;;
42702;SDS011;28341;52.064;4.920;2023-08-01T08:31:19;11.23;;;2.85;;
42702;SDS011;28341;52.064;4.920;2023-08-01T08:33:25;7.72;;;2.10;;
42702;SDS011;28341;52.064;4.920;2023-08-01T08:35:29;8.02;;;2.50;;
42702;SDS011;28341;52.064;4.920;2023-08-01T08:37:31;10.05;;;3.00;;
42702;SDS011;28341;52.064;4.920;2023-08-01T08:39:36;8.05;;;2.20;;
42702;SDS011;28341;52.064;4.920;2023-08-01T08:41:42;11.57;;;3.25;;
42702;SDS011;28341;52.064;4.920;2023-08-01T08:43:49;9.65;;;2.60;;
42702;SDS011;28341;52.064;4.920;2023-08-01T08:45:56;13.48;;;2.50;;
42702;SDS011;28341;52.064;4.920;2023-08-01T08:48:01;9.55;;;2.70;;
42702;SDS011;28341;52.064;4.920;2023-08-01T08:50:12;11.70;;;2.33;;
42702;SDS011;28341;52.064;4.920;2023-08-01T08:52:16;10.23;;;2.67;;
42702;SDS011;28341;52.064;4.920;2023-08-01T08:54:21;11.00;;;3.03;;
42702;SDS011;28341;52.064;4.920;2023-08-01T08:56:25;15.30;;;3.10;;
42702;SDS011;28341;52.064;4.920;2023-08-01T08:58:31;12.43;;;3.60;;
42702;SDS011;28341;52.064;4.920;2023-08-01T09:00:35;10.77;;;2.55;;
42702;SDS011;28341;52.064;4.920;2023-08-01T09:02:39;10.35;;;2.90;;
42702;SDS011;28341;52.064;4.920;2023-08-01T09:04:43;13.65;;;3.22;;
42702;SDS011;28341;52.064;4.920;2023-08-01T09:06:51;13.43;;;3.67;;
42702;SDS011;28341;52.064;4.920;2023-08-01T09:09:00;12.68;;;3.20;;
42702;SDS011;28341;52.064;4.920;2023-08-01T09:11:07;15.40;;;2.88;;
42702;SDS011;28341;52.064;4.920;2023-08-01T09:13:08;12.40;;;3.30;;
42702;SDS011;28341;52.064;4.920;2023-08-01T09:15:12;14.68;;;3.10;;
42702;SDS011;28341;52.064;4.920;2023-08-01T09:17:17;9.80;;;3.10;;
42702;SDS011;28341;52.064;4.920;2023-08-01T09:19:23;11.93;;;2.63;;
42702;SDS011;28341;52.064;4.920;2023-08-01T09:21:30;12.80;;;3.15;;
42702;SDS011;28341;52.064;4.920;2023-08-01T09:23:40;15.05;;;3.20;;
42702;SDS011;28341;52.064;4.920;2023-08-01T09:25:44;14.30;;;2.95;;
42702;SDS011;28341;52.064;4.920;2023-08-01T09:27:49;11.25;;;2.80;;
42702;SDS011;28341;52.064;4.920;2023-08-01T09:29:53;10.23;;;3.13;;
42702;SDS011;28341;52.064;4.920;2023-08-01T09:32:14;10.45;;;2.70;;
42702;SDS011;28341;52.064;4.920;2023-08-01T09:34:19;10.90;;;2.70;;
42702;SDS011;28341;52.064;4.920;2023-08-01T09:36:25;8.68;;;3.00;;
42702;SDS011;28341;52.064;4.920;2023-08-01T09:38:27;14.52;;;3.47;;
42702;SDS011;28341;52.064;4.920;2023-08-01T09:40:40;11.43;;;2.83;;
42702;SDS011;28341;52.064;4.920;2023-08-01T09:42:43;10.05;;;3.15;;
42702;SDS011;28341;52.064;4.920;2023-08-01T09:44:48;8.00;;;2.63;;
42702;SDS011;28341;52.064;4.920;2023-08-01T09:46:55;16.23;;;2.80;;
42702;SDS011;28341;52.064;4.920;2023-08-01T09:49:06;13.30;;;3.45;;
42702;SDS011;28341;52.064;4.920;2023-08-01T09:51:11;11.10;;;2.40;;
42702;SDS011;28341;52.064;4.920;2023-08-01T09:53:17;9.60;;;2.72;;
42702;SDS011;28341;52.064;4.920;2023-08-01T09:55:19;8.52;;;2.15;;
42702;SDS011;28341;52.064;4.920;2023-08-01T09:57:29;13.15;;;3.40;;
42702;SDS011;28341;52.064;4.920;2023-08-01T09:59:31;10.13;;;2.55;;
42702;SDS011;28341;52.064;4.920;2023-08-01T10:01:38;8.00;;;1.85;;
42702;SDS011;28341;52.064;4.920;2023-08-01T10:03:44;9.98;;;2.40;;
42702;SDS011;28341;52.064;4.920;2023-08-01T10:05:50;13.88;;;2.83;;
42702;SDS011;28341;52.064;4.920;2023-08-01T10:07:55;11.88;;;2.63;;
42702;SDS011;28341;52.064;4.920;2023-08-01T10:10:03;9.23;;;2.50;;
42702;SDS011;28341;52.064;4.920;2023-08-01T10:12:09;9.30;;;2.58;;
42702;SDS011;28341;52.064;4.920;2023-08-01T10:14:18;7.28;;;1.98;;
42702;SDS011;28341;52.064;4.920;2023-08-01T10:16:24;10.50;;;2.60;;
42702;SDS011;28341;52.064;4.920;2023-08-01T10:18:29;9.35;;;2.30;;
42702;SDS011;28341;52.064;4.920;2023-08-01T10:20:33;6.80;;;1.83;;
42702;SDS011;28341;52.064;4.920;2023-08-01T10:22:38;10.27;;;3.00;;
42702;SDS011;28341;52.064;4.920;2023-08-01T10:24:42;8.60;;;2.20;;
42702;SDS011;28341;52.064;4.920;2023-08-01T10:26:46;10.10;;;2.42;;
42702;SDS011;28341;52.064;4.920;2023-08-01T10:28:51;22.30;;;3.28;;
42702;SDS011;28341;52.064;4.920;2023-08-01T10:30:55;12.18;;;2.50;;
42702;SDS011;28341;52.064;4.920;2023-08-01T10:33:11;7.32;;;2.25;;
42702;SDS011;28341;52.064;4.920;2023-08-01T10:35:15;7.22;;;1.85;;
42702;SDS011;28341;52.064;4.920;2023-08-01T10:37:20;7.70;;;1.98;;
42702;SDS011;28341;52.064;4.920;2023-08-01T10:39:24;9.48;;;2.28;;
42702;SDS011;28341;52.064;4.920;2023-08-01T10:41:31;13.65;;;3.17;;
42702;SDS011;28341;52.064;4.920;2023-08-01T10:43:36;9.05;;;2.13;;
42702;SDS011;28341;52.064;4.920;2023-08-01T10:45:38;8.25;;;2.10;;
42702;SDS011;28341;52.064;4.920;2023-08-01T10:47:45;10.10;;;2.90;;
42702;SDS011;28341;52.064;4.920;2023-08-01T10:49:46;10.32;;;2.65;;
42702;SDS011;28341;52.064;4.920;2023-08-01T10:51:50;7.03;;;2.30;;
42702;SDS011;28341;52.064;4.920;2023-08-01T10:53:54;10.70;;;2.55;;
42702;SDS011;28341;52.064;4.920;2023-08-01T10:55:58;14.07;;;2.35;;
42702;SDS011;28341;52.064;4.920;2023-08-01T10:58:02;8.38;;;2.40;;
42702;SDS011;28341;52.064;4.920;2023-08-01T11:00:06;13.40;;;3.28;;
42702;SDS011;28341;52.064;4.920;2023-08-01T11:02:12;10.10;;;3.15;;
42702;SDS011;28341;52.064;4.920;2023-08-01T11:04:26;9.65;;;2.45;;
42702;SDS011;28341;52.064;4.920;2023-08-01T11:06:30;7.40;;;2.67;;
42702;SDS011;28341;52.064;4.920;2023-08-01T11:08:35;11.75;;;2.40;;
42702;SDS011;28341;52.064;4.920;2023-08-01T11:10:40;9.77;;;2.28;;
42702;SDS011;28341;52.064;4.920;2023-08-01T11:12:44;12.02;;;2.33;;
42702;SDS011;28341;52.064;4.920;2023-08-01T11:14:48;10.40;;;2.42;;
42702;SDS011;28341;52.064;4.920;2023-08-01T11:16:53;11.32;;;2.85;;
42702;SDS011;28341;52.064;4.920;2023-08-01T11:18:59;11.00;;;2.80;;
42702;SDS011;28341;52.064;4.920;2023-08-01T11:21:06;12.98;;;2.58;;
42702;SDS011;28341;52.064;4.920;2023-08-01T11:23:07;13.85;;;2.80;;
42702;SDS011;28341;52.064;4.920;2023-08-01T11:25:11;14.10;;;2.88;;
42702;SDS011;28341;52.064;4.920;2023-08-01T11:27:16;9.70;;;2.50;;
42702;SDS011;28341;52.064;4.920;2023-08-01T11:29:20;12.63;;;2.85;;
42702;SDS011;28341;52.064;4.920;2023-08-01T11:31:21;10.60;;;2.78;;
42702;SDS011;28341;52.064;4.920;2023-08-01T11:33:25;9.40;;;2.72;;
42702;SDS011;28341;52.064;4.920;2023-08-01T11:35:30;10.75;;;2.75;;
42702;SDS011;28341;52.064;4.920;2023-08-01T11:37:37;13.48;;;3.30;;
42702;SDS011;28341;52.064;4.920;2023-08-01T11:39:41;12.35;;;2.85;;
42702;SDS011;28341;52.064;4.920;2023-08-01T11:41:45;15.70;;;2.75;;
42702;SDS011;28341;52.064;4.920;2023-08-01T11:43:49;12.40;;;2.97;;
42702;SDS011;28341;52.064;4.920;2023-08-01T11:45:55;9.50;;;2.95;;
42702;SDS011;28341;52.064;4.920;2023-08-01T11:48:01;12.13;;;3.20;;
42702;SDS011;28341;52.064;4.920;2023-08-01T11:50:04;11.93;;;2.25;;
42702;SDS011;28341;52.064;4.920;2023-08-01T11:52:10;11.70;;;2.63;;
42702;SDS011;28341;52.064;4.920;2023-08-01T11:54:26;9.75;;;2.75;;
42702;SDS011;28341;52.064;4.920;2023-08-01T11:56:30;8.63;;;2.33;;
42702;SDS011;28341;52.064;4.920;2023-08-01T11:58:35;10.35;;;2.28;;
42702;SDS011;28341;52.064;4.920;2023-08-01T12:00:43;6.93;;;2.45;;
42702;SDS011;28341;52.064;4.920;2023-08-01T12:02:47;11.32;;;2.47;;
42702;SDS011;28341;52.064;4.920;2023-08-01T12:04:49;8.18;;;2.15;;
42702;SDS011;28341;52.064;4.920;2023-08-01T12:06:54;7.57;;;1.95;;
42702;SDS011;28341;52.064;4.920;2023-08-01T12:09:05;6.22;;;1.55;;
42702;SDS011;28341;52.064;4.920;2023-08-01T12:11:20;8.93;;;2.00;;
42702;SDS011;28341;52.064;4.920;2023-08-01T12:13:26;7.85;;;1.77;;
42702;SDS011;28341;52.064;4.920;2023-08-01T12:15:31;6.95;;;2.08;;
42702;SDS011;28341;52.064;4.920;2023-08-01T12:17:32;6.65;;;1.73;;
42702;SDS011;28341;52.064;4.920;2023-08-01T12:19:36;14.25;;;2.45;;
42702;SDS011;28341;52.064;4.920;2023-08-01T12:21:40;10.73;;;2.65;;